sensor_id;sensor_type;location;lat;lon;timestamp;P1;durP1;ratioP1;P2;durP2;ratioP2
12165;SDS011;6146;48.128;11.476;2022-12-07T00:01:08;8.30;;;7.20;;
12165;SDS011;6146;48.128;11.476;2022-12-07T00:03:35;7.63;;;6.83;;
12165;SDS011;6146;48.128;11.476;2022-12-07T00:06:02;9.03;;;7.87;;
12165;SDS011;6146;48.128;11.476;2022-12-07T00:08:29;8.83;;;7.63;;
12165;SDS011;6146;48.128;11.476;2022-12-07T00:10:55;8.50;;;7.27;;
12165;SDS011;6146;48.128;11.476;2022-12-07T00:13:25;9.07;;;7.23;;
12165;SDS011;6146;48.128;11.476;2022-12-07T00:15:50;9.40;;;7.30;;
12165;SDS011;6146;48.128;11.476;2022-12-07T00:18:16;8.13;;;7.13;;
12165;SDS011;6146;48.128;11.476;2022-12-07T00:20:41;8.43;;;7.40;;
12165;SDS011;6146;48.128;11.476;2022-12-07T00:23:07;9.13;;;7.80;;
12165;SDS011;6146;48.128;11.476;2022-12-07T00:25:32;7.73;;;6.67;;
12165;SDS011;6146;48.128;11.476;2022-12-07T00:27:58;10.13;;;8.13;;
12165;SDS011;6146;48.128;11.476;2022-12-07T00:30:23;8.23;;;7.33;;
12165;SDS011;6146;48.128;11.476;2022-12-07T00:32:49;8.07;;;7.27;;
12165;SDS011;6146;48.128;11.476;2022-12-07T00:35:15;7.43;;;6.57;;
12165;SDS011;6146;48.128;11.476;2022-12-07T00:37:40;8.30;;;6.67;;
12165;SDS011;6146;48.128;11.476;2022-12-07T00:40:06;9.13;;;7.23;;
12165;SDS011;6146;48.128;11.476;2022-12-07T00:42:32;8.97;;;7.60;;
12165;SDS011;6146;48.128;11.476;2022-12-07T00:44:58;8.37;;;7.43;;
12165;SDS011;6146;48.128;11.476;2022-12-07T00:47:23;9.10;;;7.20;;
12165;SDS011;6146;48.128;11.476;2022-12-07T00:49:49;8.87;;;7.47;;
12165;SDS011;6146;48.128;11.476;2022-12-07T00:52:14;8.07;;;6.70;;
12165;SDS011;6146;48.128;11.476;2022-12-07T00:54:40;8.07;;;7.20;;
12165;SDS011;6146;48.128;11.476;2022-12-07T00:57:05;8.53;;;7.30;;
12165;SDS011;6146;48.128;11.476;2022-12-07T00:59:31;8.23;;;7.00;;
12165;SDS011;6146;48.128;11.476;2022-12-07T01:01:56;8.57;;;7.33;;
12165;SDS011;6146;48.128;11.476;2022-12-07T01:04:22;9.53;;;7.63;;
12165;SDS011;6146;48.128;11.476;2022-12-07T01:06:48;8.60;;;7.53;;
12165;SDS011;6146;48.128;11.476;2022-12-07T01:09:13;8.77;;;7.80;;
12165;SDS011;6146;48.128;11.476;2022-12-07T01:11:39;8.07;;;7.27;;
12165;SDS011;6146;48.128;11.476;2022-12-07T01:14:04;8.13;;;7.00;;
12165;SDS011;6146;48.128;11.476;2022-12-07T01:16:31;9.17;;;7.67;;
12165;SDS011;6146;48.128;11.476;2022-12-07T01:18:58;8.53;;;7.63;;
12165;SDS011;6146;48.128;11.476;2022-12-07T01:21:28;8.10;;;7.30;;
12165;SDS011;6146;48.128;11.476;2022-12-07T01:23:59;8.40;;;7.23;;
12165;SDS011;6146;48.128;11.476;2022-12-07T01:26:25;9.10;;;7.93;;
12165;SDS011;6146;48.128;11.476;2022-12-07T01:28:51;8.87;;;7.90;;
12165;SDS011;6146;48.128;11.476;2022-12-07T01:31:20;9.40;;;7.40;;
12165;SDS011;6146;48.128;11.476;2022-12-07T01:33:48;9.43;;;7.53;;
12165;SDS011;6146;48.128;11.476;2022-12-07T01:36:29;9.00;;;7.43;;
12165;SDS011;6146;48.128;11.476;2022-12-07T01:38:57;8.33;;;7.53;;
12165;SDS011;6146;48.128;11.476;2022-12-07T01:41:25;8.80;;;7.77;;
12165;SDS011;6146;48.128;11.476;2022-12-07T01:46:41;8.20;;;7.30;;
12165;SDS011;6146;48.128;11.476;2022-12-07T01:49:18;9.27;;;7.40;;
12165;SDS011;6146;48.128;11.476;2022-12-07T01:51:49;8.60;;;7.53;;
12165;SDS011;6146;48.128;11.476;2022-12-07T01:54:19;9.00;;;7.80;;
12165;SDS011;6146;48.128;11.476;2022-12-07T01:56:50;9.13;;;8.17;;
12165;SDS011;6146;48.128;11.476;2022-12-07T01:59:18;9.00;;;7.83;;
12165;SDS011;6146;48.128;11.476;2022-12-07T02:01:47;8.60;;;7.70;;
12165;SDS011;6146;48.128;11.476;2022-12-07T02:04:13;9.60;;;7.70;;
12165;SDS011;6146;48.128;11.476;2022-12-07T02:06:39;8.60;;;7.37;;
12165;SDS011;6146;48.128;11.476;2022-12-07T02:09:06;9.10;;;8.20;;
12165;SDS011;6146;48.128;11.476;2022-12-07T02:11:32;8.40;;;7.60;;
12165;SDS011;6146;48.128;11.476;2022-12-07T02:13:58;8.43;;;7.40;;
12165;SDS011;6146;48.128;11.476;2022-12-07T02:19:36;8.40;;;7.60;;
12165;SDS011;6146;48.128;11.476;2022-12-07T02:21:50;9.10;;;8.13;;
12165;SDS011;6146;48.128;11.476;2022-12-07T02:30:14;8.80;;;7.90;;
12165;SDS011;6146;48.128;11.476;2022-12-07T02:37:59;9.63;;;7.80;;
12165;SDS011;6146;48.128;11.476;2022-12-07T02:43:28;10.00;;;7.90;;
12165;SDS011;6146;48.128;11.476;2022-12-07T02:46:03;9.53;;;8.17;;
12165;SDS011;6146;48.128;11.476;2022-12-07T02:48:33;10.17;;;7.77;;
12165;SDS011;6146;48.128;11.476;2022-12-07T02:50:59;8.77;;;7.93;;
12165;SDS011;6146;48.128;11.476;2022-12-07T02:53:31;9.00;;;7.93;;
12165;SDS011;6146;48.128;11.476;2022-12-07T02:55:59;8.70;;;7.63;;
12165;SDS011;6146;48.128;11.476;2022-12-07T03:07:33;9.03;;;7.27;;
12165;SDS011;6146;48.128;11.476;2022-12-07T03:10:17;8.90;;;7.43;;
12165;SDS011;6146;48.128;11.476;2022-12-07T03:18:25;10.50;;;8.80;;
12165;SDS011;6146;48.128;11.476;2022-12-07T03:20:57;8.70;;;7.73;;
12165;SDS011;6146;48.128;11.476;2022-12-07T03:23:27;9.10;;;8.20;;
12165;SDS011;6146;48.128;11.476;2022-12-07T03:25:55;8.97;;;8.07;;
12165;SDS011;6146;48.128;11.476;2022-12-07T03:28:24;8.97;;;7.47;;
12165;SDS011;6146;48.128;11.476;2022-12-07T03:30:57;9.63;;;8.60;;
12165;SDS011;6146;48.128;11.476;2022-12-07T03:33:54;9.47;;;7.93;;
12165;SDS011;6146;48.128;11.476;2022-12-07T03:41:52;9.93;;;8.10;;
12165;SDS011;6146;48.128;11.476;2022-12-07T03:44:18;9.43;;;7.93;;
12165;SDS011;6146;48.128;11.476;2022-12-07T03:52:04;9.17;;;8.00;;
12165;SDS011;6146;48.128;11.476;2022-12-07T03:54:41;9.80;;;8.20;;
12165;SDS011;6146;48.128;11.476;2022-12-07T03:57:14;12.23;;;8.60;;
12165;SDS011;6146;48.128;11.476;2022-12-07T03:59:40;10.57;;;8.53;;
12165;SDS011;6146;48.128;11.476;2022-12-07T04:02:07;8.83;;;7.93;;
12165;SDS011;6146;48.128;11.476;2022-12-07T04:04:35;10.53;;;7.87;;
12165;SDS011;6146;48.128;11.476;2022-12-07T04:07:01;11.03;;;8.23;;
12165;SDS011;6146;48.128;11.476;2022-12-07T04:09:27;10.30;;;8.33;;
12165;SDS011;6146;48.128;11.476;2022-12-07T04:11:53;9.40;;;7.77;;
12165;SDS011;6146;48.128;11.476;2022-12-07T04:14:18;10.97;;;8.77;;
12165;SDS011;6146;48.128;11.476;2022-12-07T04:16:44;9.40;;;8.40;;
12165;SDS011;6146;48.128;11.476;2022-12-07T04:19:15;10.23;;;9.10;;
12165;SDS011;6146;48.128;11.476;2022-12-07T04:21:42;10.17;;;8.03;;
12165;SDS011;6146;48.128;11.476;2022-12-07T04:24:07;11.13;;;8.83;;
12165;SDS011;6146;48.128;11.476;2022-12-07T04:26:33;10.53;;;9.37;;
12165;SDS011;6146;48.128;11.476;2022-12-07T04:28:58;10.13;;;8.67;;
12165;SDS011;6146;48.128;11.476;2022-12-07T04:31:24;10.80;;;9.10;;
12165;SDS011;6146;48.128;11.476;2022-12-07T04:33:49;12.63;;;9.23;;
12165;SDS011;6146;48.128;11.476;2022-12-07T04:36:15;10.90;;;9.80;;
12165;SDS011;6146;48.128;11.476;2022-12-07T04:38:41;11.33;;;9.83;;
12165;SDS011;6146;48.128;11.476;2022-12-07T04:41:07;11.63;;;9.77;;
12165;SDS011;6146;48.128;11.476;2022-12-07T04:43:34;11.90;;;9.63;;
12165;SDS011;6146;48.128;11.476;2022-12-07T04:46:00;12.17;;;10.13;;
12165;SDS011;6146;48.128;11.476;2022-12-07T04:48:26;11.13;;;9.10;;
12165;SDS011;6146;48.128;11.476;2022-12-07T04:50:53;12.47;;;9.97;;
12165;SDS011;6146;48.128;11.476;2022-12-07T04:53:19;12.10;;;9.87;;
12165;SDS011;6146;48.128;11.476;2022-12-07T04:55:45;11.90;;;9.60;;
12165;SDS011;6146;48.128;11.476;2022-12-07T04:58:11;10.67;;;8.97;;
12165;SDS011;6146;48.128;11.476;2022-12-07T05:00:37;11.87;;;9.23;;
12165;SDS011;6146;48.128;11.476;2022-12-07T05:03:03;11.93;;;9.70;;
12165;SDS011;6146;48.128;11.476;2022-12-07T05:05:29;12.03;;;9.73;;
12165;SDS011;6146;48.128;11.476;2022-12-07T05:07:54;9.20;;;8.27;;
12165;SDS011;6146;48.128;11.476;2022-12-07T05:10:20;12.17;;;9.27;;
12165;SDS011;6146;48.128;11.476;2022-12-07T05:12:46;10.73;;;9.00;;
12165;SDS011;6146;48.128;11.476;2022-12-07T05:15:12;11.23;;;9.27;;
12165;SDS011;6146;48.128;11.476;2022-12-07T05:17:38;11.33;;;9.10;;
12165;SDS011;6146;48.128;11.476;2022-12-07T05:20:04;10.97;;;9.20;;
12165;SDS011;6146;48.128;11.476;2022-12-07T05:22:30;10.07;;;8.67;;
12165;SDS011;6146;48.128;11.476;2022-12-07T05:24:56;11.90;;;9.00;;
12165;SDS011;6146;48.128;11.476;2022-12-07T05:27:22;10.83;;;9.30;;
12165;SDS011;6146;48.128;11.476;2022-12-07T05:29:49;9.93;;;8.93;;
12165;SDS011;6146;48.128;11.476;2022-12-07T05:32:15;12.27;;;9.43;;
12165;SDS011;6146;48.128;11.476;2022-12-07T05:34:41;10.90;;;9.33;;
12165;SDS011;6146;48.128;11.476;2022-12-07T05:37:07;11.60;;;9.33;;
12165;SDS011;6146;48.128;11.476;2022-12-07T05:39:32;11.53;;;9.73;;
12165;SDS011;6146;48.128;11.476;2022-12-07T05:41:58;11.33;;;9.63;;
12165;SDS011;6146;48.128;11.476;2022-12-07T05:44:39;11.03;;;9.70;;
12165;SDS011;6146;48.128;11.476;2022-12-07T05:47:06;13.27;;;10.17;;
12165;SDS011;6146;48.128;11.476;2022-12-07T05:49:31;11.07;;;9.87;;
12165;SDS011;6146;48.128;11.476;2022-12-07T05:51:57;11.90;;;9.33;;
12165;SDS011;6146;48.128;11.476;2022-12-07T05:54:23;12.53;;;9.77;;
12165;SDS011;6146;48.128;11.476;2022-12-07T05:56:48;11.60;;;10.40;;
12165;SDS011;6146;48.128;11.476;2022-12-07T05:59:14;12.20;;;10.53;;
12165;SDS011;6146;48.128;11.476;2022-12-07T06:04:19;11.67;;;10.33;;
12165;SDS011;6146;48.128;11.476;2022-12-07T06:06:46;12.20;;;10.07;;
12165;SDS011;6146;48.128;11.476;2022-12-07T06:09:12;10.97;;;9.20;;
12165;SDS011;6146;48.128;11.476;2022-12-07T06:11:38;13.13;;;10.27;;
12165;SDS011;6146;48.128;11.476;2022-12-07T06:14:23;12.00;;;10.33;;
12165;SDS011;6146;48.128;11.476;2022-12-07T06:16:48;13.23;;;9.97;;
12165;SDS011;6146;48.128;11.476;2022-12-07T06:19:14;12.27;;;10.10;;
12165;SDS011;6146;48.128;11.476;2022-12-07T06:21:40;10.83;;;9.67;;
12165;SDS011;6146;48.128;11.476;2022-12-07T06:24:06;11.63;;;9.27;;
12165;SDS011;6146;48.128;11.476;2022-12-07T06:26:32;11.53;;;10.20;;
12165;SDS011;6146;48.128;11.476;2022-12-07T06:28:58;11.87;;;9.93;;
12165;SDS011;6146;48.128;11.476;2022-12-07T06:31:23;11.43;;;10.23;;
12165;SDS011;6146;48.128;11.476;2022-12-07T06:33:49;11.97;;;10.37;;
12165;SDS011;6146;48.128;11.476;2022-12-07T06:36:15;12.37;;;10.40;;
12165;SDS011;6146;48.128;11.476;2022-12-07T06:38:40;11.17;;;9.83;;
12165;SDS011;6146;48.128;11.476;2022-12-07T06:41:06;12.17;;;10.80;;
12165;SDS011;6146;48.128;11.476;2022-12-07T06:43:31;14.07;;;10.57;;
12165;SDS011;6146;48.128;11.476;2022-12-07T06:45:57;13.60;;;11.17;;
12165;SDS011;6146;48.128;11.476;2022-12-07T06:48:23;12.37;;;10.40;;
12165;SDS011;6146;48.128;11.476;2022-12-07T06:50:49;12.27;;;10.50;;
12165;SDS011;6146;48.128;11.476;2022-12-07T06:53:14;11.93;;;10.43;;
12165;SDS011;6146;48.128;11.476;2022-12-07T06:55:41;11.17;;;9.97;;
12165;SDS011;6146;48.128;11.476;2022-12-07T06:58:07;12.90;;;10.17;;
12165;SDS011;6146;48.128;11.476;2022-12-07T07:00:32;12.47;;;10.53;;
12165;SDS011;6146;48.128;11.476;2022-12-07T07:03:00;11.83;;;9.87;;
12165;SDS011;6146;48.128;11.476;2022-12-07T07:05:25;11.63;;;10.40;;
12165;SDS011;6146;48.128;11.476;2022-12-07T07:07:51;12.77;;;10.50;;
12165;SDS011;6146;48.128;11.476;2022-12-07T07:10:17;13.73;;;11.00;;
12165;SDS011;6146;48.128;11.476;2022-12-07T07:12:42;12.37;;;9.73;;
12165;SDS011;6146;48.128;11.476;2022-12-07T07:15:08;13.27;;;11.20;;
12165;SDS011;6146;48.128;11.476;2022-12-07T07:17:34;12.80;;;11.10;;
12165;SDS011;6146;48.128;11.476;2022-12-07T07:20:00;13.20;;;11.50;;
12165;SDS011;6146;48.128;11.476;2022-12-07T07:22:25;13.73;;;11.07;;
12165;SDS011;6146;48.128;11.476;2022-12-07T07:24:51;13.00;;;11.03;;
12165;SDS011;6146;48.128;11.476;2022-12-07T07:27:17;13.00;;;10.23;;
12165;SDS011;6146;48.128;11.476;2022-12-07T07:29:42;13.50;;;10.93;;
12165;SDS011;6146;48.128;11.476;2022-12-07T07:32:08;11.73;;;10.23;;
12165;SDS011;6146;48.128;11.476;2022-12-07T07:34:34;14.97;;;11.27;;
12165;SDS011;6146;48.128;11.476;2022-12-07T07:36:59;13.23;;;10.93;;
12165;SDS011;6146;48.128;11.476;2022-12-07T07:39:25;13.10;;;11.10;;
12165;SDS011;6146;48.128;11.476;2022-12-07T07:41:50;12.93;;;10.73;;
12165;SDS011;6146;48.128;11.476;2022-12-07T07:44:16;12.67;;;10.50;;
12165;SDS011;6146;48.128;11.476;2022-12-07T07:46:41;14.23;;;11.43;;
12165;SDS011;6146;48.128;11.476;2022-12-07T07:49:08;14.10;;;11.07;;
12165;SDS011;6146;48.128;11.476;2022-12-07T07:51:35;13.63;;;11.00;;
12165;SDS011;6146;48.128;11.476;2022-12-07T07:54:00;13.77;;;11.13;;
12165;SDS011;6146;48.128;11.476;2022-12-07T07:56:26;12.03;;;10.53;;
12165;SDS011;6146;48.128;11.476;2022-12-07T07:58:52;15.03;;;10.83;;
12165;SDS011;6146;48.128;11.476;2022-12-07T08:01:18;18.37;;;12.07;;
12165;SDS011;6146;48.128;11.476;2022-12-07T08:03:47;13.73;;;11.50;;
12165;SDS011;6146;48.128;11.476;2022-12-07T08:06:12;12.77;;;10.67;;
12165;SDS011;6146;48.128;11.476;2022-12-07T08:08:38;15.50;;;11.73;;
12165;SDS011;6146;48.128;11.476;2022-12-07T08:11:07;13.10;;;11.00;;
12165;SDS011;6146;48.128;11.476;2022-12-07T08:13:34;13.13;;;11.17;;
12165;SDS011;6146;48.128;11.476;2022-12-07T08:16:04;14.17;;;11.50;;
12165;SDS011;6146;48.128;11.476;2022-12-07T08:18:31;14.20;;;12.10;;
12165;SDS011;6146;48.128;11.476;2022-12-07T08:21:01;14.80;;;11.37;;
12165;SDS011;6146;48.128;11.476;2022-12-07T08:23:28;15.97;;;12.87;;
12165;SDS011;6146;48.128;11.476;2022-12-07T08:25:59;12.90;;;10.93;;
12165;SDS011;6146;48.128;11.476;2022-12-07T08:28:26;14.03;;;11.57;;
12165;SDS011;6146;48.128;11.476;2022-12-07T08:30:52;15.03;;;12.20;;
12165;SDS011;6146;48.128;11.476;2022-12-07T08:33:23;13.00;;;11.60;;
12165;SDS011;6146;48.128;11.476;2022-12-07T08:35:48;15.43;;;12.13;;
12165;SDS011;6146;48.128;11.476;2022-12-07T08:38:14;15.73;;;12.03;;
12165;SDS011;6146;48.128;11.476;2022-12-07T08:40:40;13.33;;;11.13;;
12165;SDS011;6146;48.128;11.476;2022-12-07T08:43:05;14.20;;;11.90;;
12165;SDS011;6146;48.128;11.476;2022-12-07T08:45:31;14.50;;;12.03;;
12165;SDS011;6146;48.128;11.476;2022-12-07T08:48:02;13.73;;;11.37;;
12165;SDS011;6146;48.128;11.476;2022-12-07T08:50:32;12.43;;;10.23;;
12165;SDS011;6146;48.128;11.476;2022-12-07T08:52:59;12.87;;;11.23;;
12165;SDS011;6146;48.128;11.476;2022-12-07T08:55:25;13.67;;;11.10;;
12165;SDS011;6146;48.128;11.476;2022-12-07T08:57:52;12.40;;;10.20;;
12165;SDS011;6146;48.128;11.476;2022-12-07T09:00:18;12.30;;;10.00;;
12165;SDS011;6146;48.128;11.476;2022-12-07T09:02:44;11.63;;;10.40;;
12165;SDS011;6146;48.128;11.476;2022-12-07T09:05:11;12.83;;;10.13;;
12165;SDS011;6146;48.128;11.476;2022-12-07T09:07:39;12.07;;;10.17;;
12165;SDS011;6146;48.128;11.476;2022-12-07T09:10:07;11.60;;;10.07;;
12165;SDS011;6146;48.128;11.476;2022-12-07T09:12:33;12.37;;;10.17;;
12165;SDS011;6146;48.128;11.476;2022-12-07T09:14:58;12.97;;;10.20;;
12165;SDS011;6146;48.128;11.476;2022-12-07T09:17:25;12.67;;;10.57;;
12165;SDS011;6146;48.128;11.476;2022-12-07T09:19:51;11.87;;;10.43;;
12165;SDS011;6146;48.128;11.476;2022-12-07T09:22:17;11.73;;;10.37;;
12165;SDS011;6146;48.128;11.476;2022-12-07T09:24:42;12.37;;;10.03;;
12165;SDS011;6146;48.128;11.476;2022-12-07T09:27:10;13.73;;;11.13;;
12165;SDS011;6146;48.128;11.476;2022-12-07T09:29:36;11.80;;;10.30;;
12165;SDS011;6146;48.128;11.476;2022-12-07T09:32:02;13.80;;;11.90;;
12165;SDS011;6146;48.128;11.476;2022-12-07T09:34:30;12.30;;;10.17;;
12165;SDS011;6146;48.128;11.476;2022-12-07T09:36:56;11.87;;;9.73;;
12165;SDS011;6146;48.128;11.476;2022-12-07T09:39:22;12.93;;;11.53;;
12165;SDS011;6146;48.128;11.476;2022-12-07T09:41:48;11.97;;;10.10;;
12165;SDS011;6146;48.128;11.476;2022-12-07T09:44:20;13.47;;;10.87;;
12165;SDS011;6146;48.128;11.476;2022-12-07T09:46:49;11.67;;;10.00;;
12165;SDS011;6146;48.128;11.476;2022-12-07T09:49:22;12.03;;;9.53;;
12165;SDS011;6146;48.128;11.476;2022-12-07T09:54:35;10.27;;;9.17;;
12165;SDS011;6146;48.128;11.476;2022-12-07T09:57:05;10.77;;;9.30;;
12165;SDS011;6146;48.128;11.476;2022-12-07T09:59:31;10.77;;;8.80;;
12165;SDS011;6146;48.128;11.476;2022-12-07T10:01:56;10.67;;;9.57;;
12165;SDS011;6146;48.128;11.476;2022-12-07T10:04:49;9.50;;;8.53;;
12165;SDS011;6146;48.128;11.476;2022-12-07T10:07:15;11.33;;;9.33;;
12165;SDS011;6146;48.128;11.476;2022-12-07T10:09:40;9.77;;;8.70;;
12165;SDS011;6146;48.128;11.476;2022-12-07T10:12:07;10.00;;;8.53;;
12165;SDS011;6146;48.128;11.476;2022-12-07T10:14:35;11.33;;;10.03;;
12165;SDS011;6146;48.128;11.476;2022-12-07T10:17:19;9.80;;;8.60;;
12165;SDS011;6146;48.128;11.476;2022-12-07T10:20:08;9.80;;;8.67;;
12165;SDS011;6146;48.128;11.476;2022-12-07T10:22:37;10.53;;;9.00;;
12165;SDS011;6146;48.128;11.476;2022-12-07T10:25:17;11.90;;;9.07;;
12165;SDS011;6146;48.128;11.476;2022-12-07T10:27:44;9.10;;;7.37;;
12165;SDS011;6146;48.128;11.476;2022-12-07T10:30:52;9.77;;;8.43;;
12165;SDS011;6146;48.128;11.476;2022-12-07T10:33:31;8.23;;;7.20;;
12165;SDS011;6146;48.128;11.476;2022-12-07T10:36:00;8.60;;;7.70;;
12165;SDS011;6146;48.128;11.476;2022-12-07T10:38:43;7.70;;;6.90;;
12165;SDS011;6146;48.128;11.476;2022-12-07T10:41:10;8.00;;;7.00;;
12165;SDS011;6146;48.128;11.476;2022-12-07T10:43:36;8.23;;;7.17;;
12165;SDS011;6146;48.128;11.476;2022-12-07T10:48:52;8.30;;;6.03;;
12165;SDS011;6146;48.128;11.476;2022-12-07T10:51:36;7.23;;;6.50;;
12165;SDS011;6146;48.128;11.476;2022-12-07T10:54:39;6.43;;;5.73;;
12165;SDS011;6146;48.128;11.476;2022-12-07T11:00:29;7.73;;;6.10;;
12165;SDS011;6146;48.128;11.476;2022-12-07T11:17:30;6.60;;;6.00;;
12165;SDS011;6146;48.128;11.476;2022-12-07T11:20:24;6.30;;;5.30;;
12165;SDS011;6146;48.128;11.476;2022-12-07T11:26:19;6.67;;;5.90;;
12165;SDS011;6146;48.128;11.476;2022-12-07T11:34:28;6.60;;;6.00;;
12165;SDS011;6146;48.128;11.476;2022-12-07T11:36:58;6.43;;;5.83;;
12165;SDS011;6146;48.128;11.476;2022-12-07T11:39:33;6.60;;;5.67;;
12165;SDS011;6146;48.128;11.476;2022-12-07T11:42:05;6.77;;;6.17;;
12165;SDS011;6146;48.128;11.476;2022-12-07T11:47:38;6.83;;;6.10;;
12165;SDS011;6146;48.128;11.476;2022-12-07T11:50:37;7.20;;;5.73;;
12165;SDS011;6146;48.128;11.476;2022-12-07T11:53:26;6.97;;;6.20;;
12165;SDS011;6146;48.128;11.476;2022-12-07T12:04:00;6.50;;;5.70;;
12165;SDS011;6146;48.128;11.476;2022-12-07T12:06:26;10.53;;;8.47;;
12165;SDS011;6146;48.128;11.476;2022-12-07T12:09:04;9.00;;;6.87;;
12165;SDS011;6146;48.128;11.476;2022-12-07T12:14:24;7.50;;;6.73;;
12165;SDS011;6146;48.128;11.476;2022-12-07T12:22:28;7.23;;;5.87;;
12165;SDS011;6146;48.128;11.476;2022-12-07T12:25:02;7.10;;;6.20;;
12165;SDS011;6146;48.128;11.476;2022-12-07T12:27:46;6.90;;;6.20;;
12165;SDS011;6146;48.128;11.476;2022-12-07T12:33:29;8.10;;;6.97;;
12165;SDS011;6146;48.128;11.476;2022-12-07T12:54:39;6.90;;;5.07;;
12165;SDS011;6146;48.128;11.476;2022-12-07T12:57:34;5.13;;;4.63;;
12165;SDS011;6146;48.128;11.476;2022-12-07T13:00:01;6.83;;;5.20;;
12165;SDS011;6146;48.128;11.476;2022-12-07T13:02:47;5.97;;;5.13;;
12165;SDS011;6146;48.128;11.476;2022-12-07T13:05:19;6.17;;;5.57;;
12165;SDS011;6146;48.128;11.476;2022-12-07T13:07:59;8.00;;;5.57;;
12165;SDS011;6146;48.128;11.476;2022-12-07T13:10:39;7.03;;;5.43;;
12165;SDS011;6146;48.128;11.476;2022-12-07T13:15:37;7.57;;;6.07;;
12165;SDS011;6146;48.128;11.476;2022-12-07T13:26:03;9.17;;;6.47;;
12165;SDS011;6146;48.128;11.476;2022-12-07T13:28:38;6.10;;;5.50;;
12165;SDS011;6146;48.128;11.476;2022-12-07T13:33:38;12.13;;;9.50;;
12165;SDS011;6146;48.128;11.476;2022-12-07T13:36:03;7.70;;;6.90;;
12165;SDS011;6146;48.128;11.476;2022-12-07T13:39:18;7.33;;;6.63;;
12165;SDS011;6146;48.128;11.476;2022-12-07T13:41:40;6.27;;;5.67;;
12165;SDS011;6146;48.128;11.476;2022-12-07T13:44:16;7.23;;;5.73;;
12165;SDS011;6146;48.128;11.476;2022-12-07T13:46:44;6.93;;;5.90;;
12165;SDS011;6146;48.128;11.476;2022-12-07T13:51:46;7.13;;;6.10;;
12165;SDS011;6146;48.128;11.476;2022-12-07T13:54:12;7.53;;;5.67;;
12165;SDS011;6146;48.128;11.476;2022-12-07T13:56:39;7.40;;;5.93;;
12165;SDS011;6146;48.128;11.476;2022-12-07T13:59:16;6.97;;;5.53;;
12165;SDS011;6146;48.128;11.476;2022-12-07T14:01:45;7.33;;;5.57;;
12165;SDS011;6146;48.128;11.476;2022-12-07T14:04:16;8.27;;;5.40;;
12165;SDS011;6146;48.128;11.476;2022-12-07T14:06:51;5.70;;;5.10;;
12165;SDS011;6146;48.128;11.476;2022-12-07T14:09:23;8.03;;;5.27;;
12165;SDS011;6146;48.128;11.476;2022-12-07T14:11:51;6.53;;;4.87;;
12165;SDS011;6146;48.128;11.476;2022-12-07T14:14:22;5.90;;;4.70;;
12165;SDS011;6146;48.128;11.476;2022-12-07T14:16:56;6.53;;;4.40;;
12165;SDS011;6146;48.128;11.476;2022-12-07T14:19:45;5.30;;;4.40;;
12165;SDS011;6146;48.128;11.476;2022-12-07T14:22:17;5.77;;;4.43;;
12165;SDS011;6146;48.128;11.476;2022-12-07T14:24:46;5.37;;;4.70;;
12165;SDS011;6146;48.128;11.476;2022-12-07T14:27:18;4.40;;;4.00;;
12165;SDS011;6146;48.128;11.476;2022-12-07T14:29:45;7.30;;;4.23;;
12165;SDS011;6146;48.128;11.476;2022-12-07T14:32:35;5.23;;;4.40;;
12165;SDS011;6146;48.128;11.476;2022-12-07T14:35:10;5.43;;;4.67;;
12165;SDS011;6146;48.128;11.476;2022-12-07T14:37:37;6.33;;;4.53;;
12165;SDS011;6146;48.128;11.476;2022-12-07T14:40:05;6.30;;;4.70;;
12165;SDS011;6146;48.128;11.476;2022-12-07T14:42:31;5.80;;;4.60;;
12165;SDS011;6146;48.128;11.476;2022-12-07T14:44:58;4.83;;;4.27;;
12165;SDS011;6146;48.128;11.476;2022-12-07T14:47:26;8.77;;;6.80;;
12165;SDS011;6146;48.128;11.476;2022-12-07T14:49:52;6.30;;;5.03;;
12165;SDS011;6146;48.128;11.476;2022-12-07T14:52:22;8.30;;;5.20;;
12165;SDS011;6146;48.128;11.476;2022-12-07T14:54:52;7.27;;;5.50;;
12165;SDS011;6146;48.128;11.476;2022-12-07T14:57:17;6.93;;;5.10;;
12165;SDS011;6146;48.128;11.476;2022-12-07T14:59:43;8.50;;;6.10;;
12165;SDS011;6146;48.128;11.476;2022-12-07T15:02:10;6.90;;;5.20;;
12165;SDS011;6146;48.128;11.476;2022-12-07T15:04:37;9.67;;;5.90;;
12165;SDS011;6146;48.128;11.476;2022-12-07T15:07:03;9.43;;;5.77;;
12165;SDS011;6146;48.128;11.476;2022-12-07T15:09:30;7.47;;;5.77;;
12165;SDS011;6146;48.128;11.476;2022-12-07T15:11:55;8.60;;;5.67;;
12165;SDS011;6146;48.128;11.476;2022-12-07T15:14:21;8.00;;;5.60;;
12165;SDS011;6146;48.128;11.476;2022-12-07T15:16:47;6.80;;;5.10;;
12165;SDS011;6146;48.128;11.476;2022-12-07T15:19:16;7.70;;;4.67;;
12165;SDS011;6146;48.128;11.476;2022-12-07T15:21:43;6.80;;;5.07;;
12165;SDS011;6146;48.128;11.476;2022-12-07T15:24:10;9.60;;;5.87;;
12165;SDS011;6146;48.128;11.476;2022-12-07T15:26:36;8.07;;;5.30;;
12165;SDS011;6146;48.128;11.476;2022-12-07T15:29:02;9.33;;;6.00;;
12165;SDS011;6146;48.128;11.476;2022-12-07T15:31:28;7.47;;;5.30;;
12165;SDS011;6146;48.128;11.476;2022-12-07T15:33:53;7.77;;;5.60;;
12165;SDS011;6146;48.128;11.476;2022-12-07T15:36:20;11.37;;;6.17;;
12165;SDS011;6146;48.128;11.476;2022-12-07T15:38:48;10.20;;;7.07;;
12165;SDS011;6146;48.128;11.476;2022-12-07T15:41:14;9.60;;;6.37;;
12165;SDS011;6146;48.128;11.476;2022-12-07T15:43:40;10.33;;;6.17;;
12165;SDS011;6146;48.128;11.476;2022-12-07T15:46:29;12.57;;;5.83;;
12165;SDS011;6146;48.128;11.476;2022-12-07T15:48:59;8.43;;;6.67;;
12165;SDS011;6146;48.128;11.476;2022-12-07T15:51:25;11.87;;;6.93;;
12165;SDS011;6146;48.128;11.476;2022-12-07T15:53:52;9.83;;;6.67;;
12165;SDS011;6146;48.128;11.476;2022-12-07T15:56:18;7.90;;;6.23;;
12165;SDS011;6146;48.128;11.476;2022-12-07T15:58:44;11.13;;;6.70;;
12165;SDS011;6146;48.128;11.476;2022-12-07T16:01:10;9.20;;;6.67;;
12165;SDS011;6146;48.128;11.476;2022-12-07T16:03:37;8.53;;;6.53;;
12165;SDS011;6146;48.128;11.476;2022-12-07T16:06:03;8.37;;;6.30;;
12165;SDS011;6146;48.128;11.476;2022-12-07T16:08:28;9.63;;;6.63;;
12165;SDS011;6146;48.128;11.476;2022-12-07T16:10:54;9.70;;;6.30;;
12165;SDS011;6146;48.128;11.476;2022-12-07T16:13:19;8.60;;;6.83;;
12165;SDS011;6146;48.128;11.476;2022-12-07T16:15:46;8.93;;;6.57;;
12165;SDS011;6146;48.128;11.476;2022-12-07T16:18:11;7.63;;;6.13;;
12165;SDS011;6146;48.128;11.476;2022-12-07T16:20:37;9.23;;;7.13;;
12165;SDS011;6146;48.128;11.476;2022-12-07T16:23:03;8.70;;;7.03;;
12165;SDS011;6146;48.128;11.476;2022-12-07T16:25:28;11.10;;;7.50;;
12165;SDS011;6146;48.128;11.476;2022-12-07T16:27:54;10.70;;;6.87;;
12165;SDS011;6146;48.128;11.476;2022-12-07T16:30:20;11.23;;;6.43;;
12165;SDS011;6146;48.128;11.476;2022-12-07T16:32:45;11.97;;;7.00;;
12165;SDS011;6146;48.128;11.476;2022-12-07T16:35:11;11.70;;;7.43;;
12165;SDS011;6146;48.128;11.476;2022-12-07T16:37:38;11.80;;;7.33;;
12165;SDS011;6146;48.128;11.476;2022-12-07T16:40:04;9.17;;;6.87;;
12165;SDS011;6146;48.128;11.476;2022-12-07T16:42:33;11.93;;;7.40;;
12165;SDS011;6146;48.128;11.476;2022-12-07T16:45:00;11.73;;;7.43;;
12165;SDS011;6146;48.128;11.476;2022-12-07T16:47:26;9.67;;;6.93;;
12165;SDS011;6146;48.128;11.476;2022-12-07T16:49:52;10.73;;;7.90;;
12165;SDS011;6146;48.128;11.476;2022-12-07T16:52:18;12.20;;;7.07;;
12165;SDS011;6146;48.128;11.476;2022-12-07T16:54:44;8.30;;;6.83;;
12165;SDS011;6146;48.128;11.476;2022-12-07T16:57:10;12.27;;;8.07;;
12165;SDS011;6146;48.128;11.476;2022-12-07T16:59:35;9.20;;;7.50;;
12165;SDS011;6146;48.128;11.476;2022-12-07T17:02:01;9.73;;;7.07;;
12165;SDS011;6146;48.128;11.476;2022-12-07T17:04:27;11.37;;;7.67;;